Latest Coastal Weather Observations for Coles Point

IDS60701

Issued at 3:02 pm CDT Thursday 2 April 2015 (issued every 10 minutes, with the page automatically refreshed every 10 minutes)

About coastal observations | Map of coastal stations | Coastal observations for SA | Marine services | Other Formats
Station Details ID: 018191 Name: COLES POINT Lat: -34.37 Lon: 135.37 Height: 28.0 m
Data from the previous 72 hours. | See also: Recent months at Coles Point
Date/Time
CDT
Temp

°C
Wind Pressure Rain
since 9am
mm
Weather Cloud Vis
km
Sea
Height
m
Swell
Dir
 
Speed
knots
Gust
knots
hPa Trend Height
m
Period
s
Dir
02/03:00pm 19.6 ESE 15 22 1022.7 - 0.0 - - - - - - -
02/02:30pm 19.6 SE 17 24 1022.8 - 0.0 - - - - - - -
02/02:00pm 20.5 SE 15 20 1023.4 - 0.0 - - - - - - -
02/01:30pm 20.5 ESE 15 21 1024.1 - 0.0 - - - - - - -
02/01:00pm 20.0 ESE 14 20 1024.6 - 0.0 - - - - - - -
02/12:30pm 19.7 ESE 15 19 1024.9 - 0.0 - - - - - - -
02/12:00pm 19.0 ESE 14 21 1025.0 - 0.0 - - - - - - -
02/11:30am 18.5 SE 17 24 1025.0 - 0.0 - - - - - - -
02/11:00am 18.4 SE 15 20 1025.3 - 0.0 - - - - - - -
02/10:30am 16.9 SE 14 20 1025.3 - 0.0 - - - - - - -
02/10:00am 16.8 SE 15 22 1025.2 - 0.0 - - - - - - -
02/09:30am 16.3 SE 12 17 1025.3 - 0.0 - - - - - - -
02/09:00am 14.5 SSE 9 12 1025.2 - 0.0 - - - - - - -
02/08:30am 13.4 SSE 8 11 1025.0 - 0.0 - - - - - - -
02/08:00am 13.8 SE 11 14 1024.6 - 0.0 - - - - - - -
02/07:30am 13.5 ESE 9 12 1024.4 - 0.0 - - - - - - -
02/07:00am 13.6 ESE 9 12 1024.2 - 0.0 - - - - - - -
02/06:30am 13.2 SE 8 10 1023.8 - 0.0 - - - - - - -
02/06:00am 12.8 SE 7 8 1023.6 - 0.0 - - - - - - -
02/05:30am 13.3 SE 9 12 1023.2 - 0.0 - - - - - - -
02/05:00am 13.2 SE 6 7 1023.0 - 0.0 - - - - - - -
02/04:30am 13.7 SSE 7 9 1022.8 - 0.0 - - - - - - -
02/04:00am 14.2 SE 8 10 1022.9 - 0.0 - - - - - - -
02/03:30am 14.6 SSE 11 15 1022.9 - 0.0 - - - - - - -
02/03:00am 15.3 SSE 11 17 1022.8 - 0.0 - - - - - - -
02/02:30am 14.6 SSE 9 13 1022.9 - 0.0 - - - - - - -
02/02:00am 14.9 SSE 10 14 1022.6 - 0.0 - - - - - - -
02/01:30am 15.2 SSE 12 16 1022.6 - 0.0 - - - - - - -
02/01:00am 15.8 SSE 13 16 1022.4 - 0.0 - - - - - - -
02/12:30am 16.0 SSE 12 18 1022.0 - 0.0 - - - - - - -
02/12:00am 16.2 SSE 12 17 1022.1 - 0.0 - - - - - - -
 
Date/Time
CDT
Temp

°C
Wind Pressure Rain
since 9am
mm
Weather Cloud Vis
km
Sea
Height
m
Swell
Dir
 
Speed
knots
Gust
knots
hPa Trend Height
m
Period
s
Dir
01/11:30pm 16.5 SSE 11 17 1022.0 - 0.0 - - - - - - -
01/11:00pm 16.6 SSE 13 17 1022.0 - 0.0 - - - - - - -
01/10:30pm 16.6 SSE 14 18 1021.6 - 0.0 - - - - - - -
01/10:00pm 16.5 SSE 14 19 1021.1 - 0.0 - - - - - - -
01/09:30pm 16.0 SSE 13 16 1020.7 - 0.0 - - - - - - -
01/09:00pm 16.1 SSE 15 19 1020.1 - 0.0 - - - - - - -
01/08:30pm 16.2 SSE 13 18 1019.7 - 0.0 - - - - - - -
01/08:00pm 16.6 SSE 15 20 1018.9 - 0.0 - - - - - - -
01/07:30pm 17.4 S 16 21 1018.3 - 0.0 - - - - - - -
01/07:00pm 18.1 S 17 23 1017.7 - 0.0 - - - - - - -
01/06:30pm 19.0 S 14 19 1017.2 - 0.0 - - - - - - -
01/06:00pm 18.8 S 12 17 1016.9 - 0.0 - - - - - - -
01/05:30pm 18.9 SSW 11 14 1016.4 - 0.0 - - - - - - -
01/05:00pm 19.1 SSW 11 14 1016.1 - 0.0 - - - - - - -
01/04:30pm 19.3 SSW 14 17 1015.9 - 0.0 - - - - - - -
01/04:00pm 20.7 S 13 17 1015.6 - 0.0 - - - - - - -
01/03:30pm 20.8 SSW 10 13 1015.6 - 0.0 - - - - - - -
01/03:00pm 20.8 SW 5 7 1015.4 - 0.0 - - - - - - -
01/02:30pm 20.9 WSW 4 5 1015.4 - 0.0 - - - - - - -
01/02:00pm 21.5 SW 3 5 1015.2 - 0.0 - - - - - - -
01/01:30pm 20.7 WSW 5 7 1015.5 - 0.0 - - - - - - -
01/01:00pm 21.1 WSW 5 7 1015.4 - 0.0 - - - - - - -
01/12:30pm 20.4 W 7 9 1015.6 - 0.0 - - - - - - -
01/12:00pm 21.0 W 8 12 1015.9 - 0.0 - - - - - - -
01/11:30am 21.6 NW 9 13 1015.6 - 0.0 - - - - - - -
01/11:00am 21.4 NNW 10 14 1015.4 - 0.0 - - - - - - -
01/10:30am 22.3 NNW 13 16 1014.8 - 0.0 - - - - - - -
01/10:00am 22.4 NNW 12 15 1014.6 - 0.0 - - - - - - -
01/09:30am 21.5 NNW 10 14 1014.6 - 0.0 - - - - - - -
01/09:00am 21.4 NNW 10 13 1014.5 - 0.0 - - - - - - -
01/08:30am 22.1 NNW 11 14 1014.0 - 0.0 - - - - - - -
01/08:00am 22.9 NNW 13 18 1013.7 - 0.0 - - - - - - -
01/07:30am 22.9 NNW 12 14 1013.4 - 0.0 - - - - - - -
01/07:00am 23.5 NNW 11 14 1013.1 - 0.0 - - - - - - -
01/06:30am 25.3 N 9 14 1013.0 - 0.0 - - - - - - -
01/06:00am 22.6 NE 9 12 1013.1 - 0.0 - - - - - - -
01/05:30am 21.6 NE 12 15 1013.1 - 0.0 - - - - - - -
01/05:00am 21.4 NE 12 14 1013.3 - 0.0 - - - - - - -
01/04:30am 21.0 NE 13 14 1013.3 - 0.0 - - - - - - -
01/04:00am 21.1 NE 13 15 1013.7 - 0.0 - - - - - - -
01/03:30am 21.3 NE 12 13 1014.0 - 0.0 - - - - - - -
01/03:00am 21.3 NE 12 14 1014.4 - 0.0 - - - - - - -
01/02:30am 20.5 NE 11 12 1014.8 - 0.0 - - - - - - -
01/02:00am 20.7 NE 10 11 1014.9 - 0.0 - - - - - - -
01/01:30am 21.3 NE 10 12 1015.0 - 0.0 - - - - - - -
01/01:00am 22.4 NE 13 15 1015.6 - 0.0 - - - - - - -
01/12:30am 22.6 NE 11 13 1016.3 - 0.0 - - - - - - -
01/12:00am 22.7 NE 10 11 1016.8 - 0.0 - - - - - - -
 
Date/Time
CDT
Temp

°C
Wind Pressure Rain
since 9am
mm
Weather Cloud Vis
km
Sea
Height
m
Swell
Dir
 
Speed
knots
Gust
knots
hPa Trend Height
m
Period
s
Dir
31/11:30pm 23.2 NNE 9 10 1017.1 - 0.0 - - - - - - -
31/11:00pm 22.6 NNE 9 10 1017.1 - 0.0 - - - - - - -
31/10:30pm 23.1 NE 9 9 1017.2 - 0.0 - - - - - - -
31/10:00pm 23.3 NE 7 8 1017.4 - 0.0 - - - - - - -
31/09:30pm 24.0 NE 8 9 1017.3 - 0.0 - - - - - - -
31/09:00pm 23.3 ENE 5 6 1017.2 - 0.0 - - - - - - -
31/08:30pm 22.8 SSW 1 2 1017.4 - 0.0 - - - - - - -
31/08:00pm 23.2 SW 3 4 1017.4 - 0.0 - - - - - - -
31/07:30pm 24.3 SW 3 4 1017.2 - 0.0 - - - - - - -
31/07:00pm 25.4 SW 3 4 1017.2 - 0.0 - - - - - - -
31/06:30pm 27.2 SW 5 6 1017.1 - 0.0 - - - - - - -
31/06:00pm 28.5 S 5 8 1017.1 - 0.0 - - - - - - -
31/05:30pm 27.4 WSW 5 6 1017.2 - 0.0 - - - - - - -
31/05:00pm 27.5 W 6 7 1017.4 - 0.0 - - - - - - -
31/04:30pm 27.7 WSW 4 6 1017.5 - 0.0 - - - - - - -
31/04:00pm 27.1 SW 6 7 1017.8 - 0.0 - - - - - - -
31/03:30pm 28.0 WSW 5 6 1018.2 - 0.0 - - - - - - -
31/03:00pm 26.8 WSW 5 7 1018.5 - 0.0 - - - - - - -
31/02:30pm 27.2 WSW 6 7 1018.8 - 0.0 - - - - - - -
31/02:00pm 29.4 WNW 8 11 1019.3 - 0.0 - - - - - - -
31/01:30pm 28.9 WNW 8 10 1019.6 - 0.0 - - - - - - -
31/01:00pm 29.6 NW 7 10 1020.0 - 0.0 - - - - - - -
31/12:30pm 30.3 NNW 8 12 1020.3 - 0.0 - - - - - - -
31/12:00pm 30.2 N 9 13 1020.7 - 0.0 - - - - - - -
31/11:30am 28.8 NNE 11 15 1020.9 - 0.0 - - - - - - -
31/11:00am 26.4 NE 10 13 1021.5 - 0.0 - - - - - - -
31/10:30am 24.2 NE 12 15 1021.9 - 0.0 - - - - - - -
31/10:00am 21.2 NE 12 15 1021.9 - 0.0 - - - - - - -
31/09:30am 18.8 NE 12 14 1022.0 - 0.0 - - - - - - -
31/09:00am 17.3 NE 11 13 1022.0 - 0.0 - - - - - - -
31/08:30am 16.6 NE 12 14 1021.7 - 0.0 - - - - - - -
31/08:00am 15.8 NE 11 12 1021.5 - 0.0 - - - - - - -
31/07:30am 16.5 NNE 11 13 1021.5 - 0.0 - - - - - - -
31/07:00am 16.3 NE 11 13 1021.1 - 0.0 - - - - - - -
31/06:30am 16.6 NE 12 13 1020.9 - 0.0 - - - - - - -
31/06:00am 16.9 NNE 12 14 1021.0 - 0.0 - - - - - - -
31/05:30am 17.0 NE 12 14 1021.0 - 0.0 - - - - - - -
31/05:00am 17.0 NNE 12 14 1021.1 - 0.0 - - - - - - -
31/04:30am 16.9 NE 11 13 1021.5 - 0.0 - - - - - - -
31/04:00am 17.3 NE 11 13 1021.9 - 0.0 - - - - - - -
31/03:30am 17.3 NE 11 13 1022.2 - 0.0 - - - - - - -
31/03:00am 17.7 NNE 11 13 1022.3 - 0.0 - - - - - - -
31/02:30am 17.2 NNE 10 11 1022.7 - 0.0 - - - - - - -
31/02:00am 17.6 NNE 10 12 1023.0 - 0.0 - - - - - - -
31/01:30am 18.1 NNE 10 12 1022.8 - 0.0 - - - - - - -
31/01:00am 18.2 NNE 9 12 1022.9 - 0.0 - - - - - - -
31/12:30am 18.1 NNE 9 10 1023.2 - 0.0 - - - - - - -
31/12:00am 18.9 NE 9 11 1023.3 - 0.0 - - - - - - -
 
Date/Time
CDT
Temp

°C
Wind Pressure Rain
since 9am
mm
Weather Cloud Vis
km
Sea
Height
m
Swell
Dir
 
Speed
knots
Gust
knots
hPa Trend Height
m
Period
s
Dir
30/11:30pm 18.4 NE 9 11 1023.5 - 0.0 - - - - - - -
30/11:00pm 18.5 NE 9 10 1023.5 - 0.0 - - - - - - -
30/10:30pm 18.3 NNE 9 10 1023.6 - 0.0 - - - - - - -
30/10:00pm 18.5 NNE 10 11 1023.6 - 0.0 - - - - - - -
30/09:30pm 19.3 NE 9 11 1023.4 - 0.0 - - - - - - -
30/09:00pm 19.2 NE 7 10 1023.3 - 0.0 - - - - - - -
30/08:30pm 19.7 ENE 7 9 1023.1 - 0.0 - - - - - - -
30/08:00pm 20.8 E 8 9 1022.8 - 0.0 - - - - - - -
30/07:30pm 21.8 SSE 4 6 1022.6 - 0.0 - - - - - - -
30/07:00pm 23.3 SSW 5 6 1022.6 - 0.0 - - - - - - -
30/06:30pm 23.9 SW 6 7 1022.5 - 0.0 - - - - - - -
30/06:00pm 24.1 SW 8 9 1022.2 - 0.0 - - - - - - -
30/05:30pm 25.4 SW 7 8 1022.2 - 0.0 - - - - - - -
30/05:00pm 24.5 SW 8 10 1022.2 - 0.0 - - - - - - -
30/04:30pm 25.1 SW 8 10 1022.2 - 0.0 - - - - - - -
30/04:00pm 24.0 SW 8 10 1022.3 - 0.0 - - - - - - -
30/03:30pm 24.8 SW 10 12 1022.5 - 0.0 - - - - - - -

Other Formats:

Comma delimited format used in spreadsheet applications
http://www.bom.gov.au/fwo/IDS60701/IDS60701.94658.axf

JavaScript Object Notation format (JSON) in row-major order
http://www.bom.gov.au/fwo/IDS60701/IDS60701.94658.json